Time;durP1;ratioP1;P1;durP2;ratioP2;P2;SDS_P1;SDS_P2;PMS_P1;PMS_P2;Temp;Humidity;BMP_temperature;BMP_pressure;BME280_temperature;BME280_humidity;BME280_pressure;Samples;Min_cycle;Max_cycle;Signal;HPM_P1;HPM_P2
2022/06/13 00:03:49;;;;;;;0.95;0.32;;;;;;;21.67;41.01;102034.69;16136274;19;129233;-52
2022/06/13 00:09:11;;;;;;;2.63;0.57;;;;;;;21.67;41.22;102029.13;16136345;19;129817;-48
2022/06/13 00:14:32;;;;;;;0.90;0.30;;;;;;;21.66;40.81;102027.47;16151934;19;129240;-50
2022/06/13 00:19:54;;;;;;;0.80;0.40;;;;;;;21.65;40.80;102012.66;16151233;19;129955;-55
2022/06/13 00:25:16;;;;;;;2.60;0.30;;;;;;;21.64;41.22;102016.53;16149714;19;129362;-49
2022/06/13 00:30:38;;;;;;;2.03;0.40;;;;;;;21.64;41.08;102018.50;16145007;19;130461;-52
2022/06/13 00:36:00;;;;;;;1.10;0.40;;;;;;;21.63;41.26;102008.44;16148722;19;129229;-50
2022/06/13 00:41:27;;;;;;;0.47;0.20;;;;;;;21.63;41.28;102000.09;16148090;19;129437;-48
2022/06/13 00:46:50;;;;;;;1.92;0.47;;;;;;;21.62;41.38;102001.16;16144165;19;130343;-52
2022/06/13 00:52:29;;;;;;;0.98;0.40;;;;;;;21.63;40.91;102014.84;16145840;19;128945;-50
2022/06/13 00:57:52;;;;;;;3.35;0.60;;;;;;;21.60;41.29;102017.25;16146074;19;129102;-48
2022/06/13 01:03:14;;;;;;;1.50;0.40;;;;;;;21.60;41.07;102012.53;16146799;19;129173;-54
2022/06/13 01:08:38;;;;;;;0.35;0.20;;;;;;;21.60;41.56;102017.25;16143997;19;129562;-53
2022/06/13 01:14:02;;;;;;;1.30;0.47;;;;;;;21.59;41.32;102018.34;16145480;19;129513;-53
2022/06/13 01:19:45;;;;;;;1.80;0.45;;;;;;;21.59;41.42;102010.00;16145499;19;129870;-51
2022/06/13 01:25:19;;;;;;;0.70;0.30;;;;;;;21.58;41.36;102008.28;16145954;19;131536;-54
2022/06/13 01:30:49;;;;;;;0.73;0.22;;;;;;;21.56;41.48;101999.34;16141272;19;128962;-48
2022/06/13 01:36:39;;;;;;;0.68;0.20;;;;;;;21.56;41.62;101991.84;16144553;19;129309;-55
2022/06/13 01:42:05;;;;;;;0.60;0.30;;;;;;;21.55;41.26;101998.50;16146977;19;129478;-49
2022/06/13 01:47:33;;;;;;;1.80;0.43;;;;;;;21.54;41.73;101995.97;16143947;19;128978;-51
2022/06/13 01:53:36;;;;;;;1.52;0.40;;;;;;;21.54;41.55;102002.38;16143724;19;129736;-55
2022/06/13 01:59:27;;;;;;;2.67;0.30;;;;;;;21.52;41.78;102002.63;16134725;19;129169;-48
2022/06/13 02:05:35;;;;;;;0.57;0.30;;;;;;;21.51;41.48;102003.72;16128543;19;129138;-50
2022/06/13 02:11:16;;;;;;;0.63;0.20;;;;;;;21.52;41.59;102005.41;16129615;19;129068;-53
2022/06/13 02:16:47;;;;;;;0.43;0.20;;;;;;;21.51;41.50;101998.13;16132651;19;130333;-56
2022/06/13 02:22:22;;;;;;;1.00;0.30;;;;;;;21.50;41.59;101999.22;16133010;19;129606;-55
2022/06/13 02:27:49;;;;;;;0.77;0.30;;;;;;;21.48;41.67;101998.56;16132125;19;129371;-56
2022/06/13 02:33:27;;;;;;;1.70;0.30;;;;;;;21.50;41.47;102002.00;16131061;19;129626;-55
2022/06/13 02:39:00;;;;;;;0.95;0.30;;;;;;;21.49;41.68;102000.31;16142146;19;129030;-56
2022/06/13 02:44:33;;;;;;;0.63;0.30;;;;;;;21.48;41.58;101998.56;16135787;19;129222;-53
2022/06/13 02:50:01;;;;;;;0.90;0.30;;;;;;;21.47;41.66;101996.88;16132545;19;129735;-56
2022/06/13 02:55:23;;;;;;;0.90;0.30;;;;;;;21.46;41.61;101992.41;16134507;19;131004;-56
2022/06/13 03:00:54;;;;;;;0.63;0.28;;;;;;;21.48;42.00;102003.28;16135093;19;129455;-54
2022/06/13 03:06:48;;;;;;;0.50;0.28;;;;;;;21.46;41.77;102000.75;16135455;19;129508;-56
2022/06/13 03:12:19;;;;;;;0.50;0.20;;;;;;;21.47;42.00;102005.22;16132134;19;129268;-55
2022/06/13 03:18:00;;;;;;;0.47;0.20;;;;;;;21.44;42.10;102000.13;16132306;19;128787;-55
2022/06/13 03:23:29;;;;;;;1.15;0.30;;;;;;;21.44;42.08;102002.91;16133425;19;129683;-56
2022/06/13 03:28:58;;;;;;;1.00;0.40;;;;;;;21.46;42.03;102002.69;16131792;19;129508;-55
2022/06/13 03:34:28;;;;;;;0.98;0.28;;;;;;;21.43;42.11;101998.44;16132527;19;129117;-53
2022/06/13 03:40:06;;;;;;;0.22;0.20;;;;;;;21.44;42.13;102002.91;16132087;19;129326;-54
2022/06/13 03:45:38;;;;;;;1.40;0.30;;;;;;;21.43;41.92;102003.16;15986973;19;2968183;-56
2022/06/13 03:51:03;;;;;;;1.60;0.57;;;;;;;21.42;42.12;102016.22;16145921;19;129855;-55
2022/06/13 03:56:43;;;;;;;;;;;;;;;21.38;41.89;102026.16;16150631;19;128968;-56
2022/06/13 04:02:11;;;;;;;1.63;0.30;;;;;;;21.40;41.66;102032.34;16150672;19;128835;-56
2022/06/13 04:07:36;;;;;;;1.00;0.30;;;;;;;21.40;41.74;102020.34;16149097;19;130439;-55
2022/06/13 04:13:33;;;;;;;0.52;0.30;;;;;;;21.39;41.85;102027.84;16152218;19;129312;-56
2022/06/13 04:19:03;;;;;;;0.73;0.30;;;;;;;21.39;42.08;102027.00;16141901;19;129857;-56
2022/06/13 04:24:36;;;;;;;0.75;0.45;;;;;;;21.39;42.17;102036.22;16141786;19;129526;-57
2022/06/13 04:30:09;;;;;;;1.73;0.40;;;;;;;21.37;42.00;102030.88;16138028;19;129507;-55
2022/06/13 04:35:34;;;;;;;0.65;0.30;;;;;;;21.37;42.22;102041.16;16139920;19;129626;-56
2022/06/13 04:41:01;;;;;;;1.25;0.40;;;;;;;21.37;41.79;102052.28;16140441;19;129705;-57
2022/06/13 04:46:27;;;;;;;1.00;0.35;;;;;;;21.36;41.83;102057.00;16135707;19;130130;-55
2022/06/13 04:51:51;;;;;;;1.20;0.50;;;;;;;21.36;42.03;102061.72;16136454;19;129656;-54
2022/06/13 04:57:15;;;;;;;0.65;0.40;;;;;;;21.35;41.95;102071.16;16144628;19;129818;-54
2022/06/13 05:02:46;;;;;;;1.23;0.40;;;;;;;21.37;42.16;102069.00;16147992;19;130122;-56
2022/06/13 05:08:23;;;;;;;1.75;0.40;;;;;;;21.35;42.08;102071.16;16147023;19;129791;-56
2022/06/13 05:13:48;;;;;;;0.45;0.30;;;;;;;21.35;41.83;102076.72;16145213;19;129276;-53
2022/06/13 05:19:25;;;;;;;0.80;0.38;;;;;;;21.34;42.00;102084.25;16145978;19;129589;-56
2022/06/13 05:25:24;;;;;;;3.70;0.47;;;;;;;21.38;42.09;102087.41;16145849;19;128890;-55
2022/06/13 05:30:49;;;;;;;4.90;0.98;;;;;;;21.39;42.12;102089.09;16142680;19;130188;-55
2022/06/13 05:36:17;;;;;;;5.30;1.52;;;;;;;21.44;42.17;102088.38;16146396;19;129835;-56
2022/06/13 05:41:42;;;;;;;8.85;1.70;;;;;;;21.46;42.31;102098.19;16145951;19;129067;-53
2022/06/13 05:47:03;;;;;;;3.40;1.23;;;;;;;21.47;42.18;102105.47;16137503;19;129215;-55
2022/06/13 05:52:25;;;;;;;3.92;1.13;;;;;;;21.50;42.35;102109.72;16136633;19;130427;-52
2022/06/13 05:57:47;;;;;;;5.40;1.33;;;;;;;21.52;42.00;102110.34;16137861;19;129758;-54
2022/06/13 06:03:09;;;;;;;6.75;1.52;;;;;;;21.52;42.15;102111.22;16131679;19;131214;-54
2022/06/13 06:08:37;;;;;;;2.97;1.20;;;;;;;21.51;41.94;102123.44;16140699;19;130127;-55
2022/06/13 06:13:59;;;;;;;7.53;2.03;;;;;;;21.50;41.87;102127.28;16140783;19;129753;-54
2022/06/13 06:19:22;;;;;;;5.38;1.35;;;;;;;21.49;41.98;102136.72;16142503;19;128841;-54
2022/06/13 06:24:44;;;;;;;6.40;1.40;;;;;;;21.49;41.94;102135.88;16143740;19;129109;-55
2022/06/13 06:30:06;;;;;;;4.35;1.88;;;;;;;21.47;42.00;102136.09;16135883;19;130190;-53
2022/06/13 06:35:30;;;;;;;11.27;2.00;;;;;;;21.46;41.94;102144.69;16139836;19;129384;-55
2022/06/13 06:40:57;;;;;;;4.20;1.48;;;;;;;21.45;41.61;102146.59;16140548;19;129948;-55
2022/06/13 06:46:20;;;;;;;5.50;1.83;;;;;;;21.44;41.68;102146.84;16137260;19;129270;-53
2022/06/13 06:51:43;;;;;;;8.05;1.63;;;;;;;21.43;41.21;102159.06;16137671;19;130045;-54
2022/06/13 07:02:46;;;;;;;9.75;1.98;;;;;;;21.43;41.47;102156.28;16141357;19;129545;-56
2022/06/13 07:08:08;;;;;;;5.78;1.42;;;;;;;21.46;40.98;102162.22;16137136;19;129859;-56
2022/06/13 07:13:29;;;;;;;5.78;1.20;;;;;;;21.50;41.47;102160.72;16143027;19;129365;-56
2022/06/13 07:18:51;;;;;;;6.93;1.50;;;;;;;21.52;41.31;102166.03;16139301;19;129361;-56
2022/06/13 07:24:14;;;;;;;3.25;1.20;;;;;;;21.54;41.24;102174.16;16139116;19;129217;-55
2022/06/13 07:29:36;;;;;;;3.63;1.00;;;;;;;21.56;40.84;102171.97;16137044;19;129413;-53
2022/06/13 07:35:01;;;;;;;4.07;1.02;;;;;;;21.57;40.90;102179.25;16140343;19;129937;-57
2022/06/13 07:40:24;;;;;;;3.58;0.93;;;;;;;21.59;40.52;102182.66;16139563;19;129653;-56
2022/06/13 07:45:46;;;;;;;3.78;0.90;;;;;;;21.61;40.64;102186.03;16133798;19;129102;-56
2022/06/13 07:51:13;;;;;;;4.07;1.15;;;;;;;21.61;40.38;102203.59;16132478;19;129247;-56
2022/06/13 07:56:36;;;;;;;5.43;1.30;;;;;;;21.61;40.30;102202.75;16138841;19;129207;-58
2022/06/13 08:01:58;;;;;;;4.30;1.33;;;;;;;21.61;40.37;102208.31;16137574;19;128889;-54
2022/06/13 08:07:20;;;;;;;3.05;0.90;;;;;;;21.61;40.56;102202.75;16137521;19;128852;-53
2022/06/13 08:12:44;;;;;;;2.08;0.80;;;;;;;21.61;40.43;102211.94;16130140;19;129281;-58
2022/06/13 08:18:06;;;;;;;3.97;1.08;;;;;;;21.59;39.89;102216.06;16137524;19;128906;-59
2022/06/13 08:23:28;;;;;;;3.28;1.08;;;;;;;21.60;39.67;102226.13;16134969;19;129373;-55
2022/06/13 08:28:50;;;;;;;3.55;0.93;;;;;;;21.61;40.27;102227.81;16136675;19;128935;-55
2022/06/13 08:34:12;;;;;;;2.42;0.80;;;;;;;21.60;39.94;102223.31;16150499;19;129563;-56
2022/06/13 08:39:34;;;;;;;3.28;0.90;;;;;;;21.60;40.33;102234.47;16152358;19;130388;-56
2022/06/13 08:45:07;;;;;;;2.13;0.82;;;;;;;21.59;39.94;102243.91;16147122;19;129307;-56
2022/06/13 08:50:29;;;;;;;3.13;1.00;;;;;;;21.57;40.23;102248.84;16148011;19;130329;-55
2022/06/13 08:56:12;;;;;;;5.15;1.00;;;;;;;21.58;39.61;102256.13;16151201;19;130720;-57
2022/06/13 09:01:41;;;;;;;3.53;0.98;;;;;;;21.56;39.40;102255.50;16150338;19;129853;-56
2022/06/13 09:07:15;;;;;;;3.42;0.70;;;;;;;21.54;39.90;102263.28;16148340;19;129472;-56
2022/06/13 09:12:36;;;;;;;2.45;0.60;;;;;;;21.51;39.70;102272.91;16144837;19;129504;-55
2022/06/13 09:18:05;;;;;;;3.42;0.80;;;;;;;21.51;39.57;102271.00;16148722;19;129235;-56
2022/06/13 09:23:54;;;;;;;2.22;0.63;;;;;;;21.51;39.63;102268.22;16149561;19;130665;-56
2022/06/13 09:29:31;;;;;;;5.13;0.98;;;;;;;21.51;39.90;102275.69;16146999;19;129038;-56
2022/06/13 09:35:12;;;;;;;3.22;0.90;;;;;;;21.51;39.59;102282.13;16147858;19;129556;-55
2022/06/13 09:40:37;;;;;;;1.35;0.68;;;;;;;21.50;39.70;102288.78;16146656;19;131173;-56
2022/06/13 09:46:09;;;;;;;2.78;1.00;;;;;;;21.50;39.55;102286.00;16142500;19;130182;-57
2022/06/13 09:51:41;;;;;;;3.15;0.82;;;;;;;21.52;39.36;102291.31;16142813;19;129636;-53
2022/06/13 09:57:58;;;;;;;2.50;0.70;;;;;;;21.48;39.02;102292.84;16144967;19;128938;-56
2022/06/13 10:03:32;;;;;;;2.97;0.80;;;;;;;21.49;39.02;102295.44;16136203;19;130063;-57
2022/06/13 10:09:33;;;;;;;4.75;0.95;;;;;;;21.49;38.94;102292.66;16135169;19;129173;-56
2022/06/13 10:15:00;;;;;;;3.55;0.75;;;;;;;21.48;39.11;102282.56;16137078;19;130487;-54
2022/06/13 10:20:45;;;;;;;2.20;0.70;;;;;;;21.48;38.47;102288.13;16133510;19;132402;-56
2022/06/13 10:26:28;;;;;;;2.15;0.55;;;;;;;21.47;38.93;102300.34;16136278;19;129377;-54
2022/06/13 10:32:11;;;;;;;1.52;0.50;;;;;;;21.46;38.48;102301.44;16131591;19;129879;-55
2022/06/13 10:38:02;;;;;;;4.22;0.70;;;;;;;21.45;38.48;102310.88;16142282;19;129571;-55
2022/06/13 10:43:25;;;;;;;1.40;0.60;;;;;;;21.44;38.63;102300.81;16142360;19;129316;-56
2022/06/13 10:48:59;;;;;;;2.42;0.50;;;;;;;21.44;38.54;102317.50;16141376;19;128904;-56
2022/06/13 10:54:29;;;;;;;2.75;0.60;;;;;;;21.46;38.68;102320.09;16141823;19;129450;-56
2022/06/13 11:00:25;;;;;;;1.63;0.80;;;;;;;21.47;38.34;102296.72;16138171;19;130216;-56
2022/06/13 11:05:57;;;;;;;;;;;;;;;21.42;38.51;102316.88;16143603;19;129210;-56
2022/06/13 11:11:30;;;;;;;1.83;0.50;;;;;;;21.47;38.30;102299.50;16139841;19;129358;-57
2022/06/13 11:22:40;;;;;;;1.83;0.57;;;;;;;21.45;38.10;102316.44;16141597;19;129428;-55
2022/06/13 11:28:01;;;;;;;;;;;;;;;21.43;38.30;102303.84;16142476;19;128881;-56
2022/06/13 11:33:27;;;;;;;2.20;0.60;;;;;;;21.46;38.43;102318.13;16137441;19;129745;-56
2022/06/13 11:39:03;;;;;;;4.93;1.25;;;;;;;21.47;37.99;102321.78;16137682;19;130366;-56
2022/06/13 11:44:25;;;;;;;2.90;0.83;;;;;;;21.46;38.02;102311.72;16136301;19;129319;-56
2022/06/13 11:49:52;;;;;;;0.60;0.30;;;;;;;21.46;37.85;102329.28;16137760;19;131951;-57
2022/06/13 11:55:22;;;;;;;1.65;0.60;;;;;;;21.46;37.96;102312.56;16139239;19;129321;-56
2022/06/13 12:00:51;;;;;;;1.42;0.40;;;;;;;21.48;38.04;102317.88;16134131;19;129452;-56
2022/06/13 12:06:17;;;;;;;0.80;0.43;;;;;;;21.48;38.02;102315.09;16146948;19;129398;-54
2022/06/13 12:11:52;;;;;;;2.60;0.60;;;;;;;21.48;37.49;102317.88;16151256;19;132065;-56
2022/06/13 12:17:26;;;;;;;1.10;0.50;;;;;;;21.48;37.75;102324.31;16153811;19;128972;-56
2022/06/13 12:23:11;;;;;;;2.20;0.55;;;;;;;21.48;37.91;102327.13;16151272;19;128859;-57
2022/06/13 12:29:04;;;;;;;2.15;0.47;;;;;;;21.48;38.02;102309.53;16144408;19;130023;-56
2022/06/13 12:34:44;;;;;;;2.00;0.50;;;;;;;21.49;37.76;102312.13;16148508;19;129183;-55
2022/06/13 12:40:12;;;;;;;1.65;0.50;;;;;;;21.50;37.73;102324.13;16149663;19;128943;-56
2022/06/13 12:45:49;;;;;;;0.73;0.30;;;;;;;21.51;37.77;102323.03;16147178;19;129361;-57
2022/06/13 12:51:38;;;;;;;0.82;0.35;;;;;;;21.51;37.30;102326.69;16145553;19;130506;-56
2022/06/13 12:57:15;;;;;;;2.20;0.45;;;;;;;21.51;37.22;102343.41;16148593;19;129143;-57
2022/06/13 13:02:55;;;;;;;1.30;0.30;;;;;;;21.51;37.17;102332.25;16148318;19;130302;-54
2022/06/13 13:08:29;;;;;;;1.25;0.22;;;;;;;21.50;37.11;102333.34;16150616;19;130099;-56
2022/06/13 13:14:00;;;;;;;1.40;0.47;;;;;;;21.50;37.26;102335.25;16144508;19;129355;-56
2022/06/13 13:19:34;;;;;;;0.93;0.40;;;;;;;21.50;37.10;102346.38;16146627;19;129099;-56
2022/06/13 13:25:18;;;;;;;1.75;0.30;;;;;;;21.49;37.14;102337.19;16148011;19;129648;-57
2022/06/13 13:30:54;;;;;;;0.47;0.20;;;;;;;21.50;37.07;102341.69;16144590;19;129290;-56
2022/06/13 13:36:45;;;;;;;1.17;0.40;;;;;;;21.49;36.87;102351.13;16144557;19;130143;-56
2022/06/13 13:42:23;;;;;;;1.40;0.30;;;;;;;21.48;36.91;102360.53;16144787;19;130787;-57
2022/06/13 13:47:50;;;;;;;0.95;0.35;;;;;;;21.48;36.82;102357.75;16146959;19;130011;-56
2022/06/13 13:53:15;;;;;;;0.93;0.32;;;;;;;21.48;36.84;102354.97;16140316;19;129852;-55
2022/06/13 13:58:38;;;;;;;1.67;0.47;;;;;;;21.47;36.70;102350.47;16142587;19;131262;-55
2022/06/13 14:04:44;;;;;;;1.00;0.40;;;;;;;21.49;36.21;102348.34;16143405;19;129343;-56
2022/06/13 14:10:08;;;;;;;3.13;0.50;;;;;;;21.46;36.34;102340.41;16141804;19;128883;-57
2022/06/13 14:15:50;;;;;;;1.85;0.38;;;;;;;21.47;36.01;102335.72;16139702;19;129700;-56
2022/06/13 14:21:15;;;;;;;0.73;0.20;;;;;;;21.47;36.30;102336.53;16140689;19;129351;-56
2022/06/13 14:26:57;;;;;;;1.10;0.40;;;;;;;21.46;35.96;102345.97;16137835;19;129419;-57
2022/06/13 14:32:34;;;;;;;1.42;0.50;;;;;;;21.47;36.08;102342.13;16136448;19;130573;-56
2022/06/13 14:37:58;;;;;;;1.85;0.30;;;;;;;21.45;36.00;102344.28;16143591;19;129773;-56
2022/06/13 14:43:48;;;;;;;1.70;0.50;;;;;;;21.47;35.96;102330.13;16140585;19;129365;-56
2022/06/13 14:49:27;;;;;;;1.08;0.32;;;;;;;21.46;35.83;102331.22;16139665;19;129978;-56
2022/06/13 14:55:11;;;;;;;2.70;0.50;;;;;;;21.46;35.86;102328.44;16137843;19;130400;-57
2022/06/13 15:00:34;;;;;;;1.23;0.30;;;;;;;21.45;35.69;102337.88;16136827;19;130074;-56
2022/06/13 15:05:58;;;;;;;0.85;0.28;;;;;;;21.46;35.93;102331.22;16142061;19;129663;-56
2022/06/13 15:11:20;;;;;;;1.88;0.40;;;;;;;21.46;36.03;102328.44;16137662;19;129002;-57
2022/06/13 15:16:44;;;;;;;1.80;0.40;;;;;;;21.45;35.92;102322.00;16138375;19;129725;-57
2022/06/13 15:22:12;;;;;;;2.70;0.68;;;;;;;21.45;35.65;102322.00;16142430;19;129478;-57
2022/06/13 15:27:56;;;;;;;1.75;0.40;;;;;;;21.45;35.72;102327.56;16137591;19;129962;-56
2022/06/13 15:33:21;;;;;;;1.27;0.28;;;;;;;21.45;35.39;102321.16;16134462;19;130457;-56
2022/06/13 15:38:45;;;;;;;2.05;0.35;;;;;;;21.44;35.54;102325.88;16137643;19;129563;-56
2022/06/13 15:44:15;;;;;;;1.33;0.40;;;;;;;21.47;36.08;102327.34;16135005;19;129227;-54
2022/06/13 15:49:44;;;;;;;2.30;0.43;;;;;;;21.50;35.85;102324.97;16135505;19;129290;-56
2022/06/13 15:55:12;;;;;;;2.50;0.70;;;;;;;21.51;36.31;102320.25;16135003;19;129749;-54
2022/06/13 16:00:38;;;;;;;3.13;0.50;;;;;;;21.51;36.04;102325.81;16132204;19;129788;-57
2022/06/13 16:06:04;;;;;;;2.83;0.60;;;;;;;21.56;35.89;102322.34;16136052;19;129683;-57
2022/06/13 16:11:28;;;;;;;5.32;0.80;;;;;;;21.60;35.73;102318.00;16127846;19;129911;-55
2022/06/13 16:17:00;;;;;;;1.58;0.52;;;;;;;21.63;36.07;102317.56;16135893;19;129490;-54
2022/06/13 16:22:23;;;;;;;2.95;0.93;;;;;;;21.63;36.13;102325.91;16135633;19;129913;-56
2022/06/13 16:27:46;;;;;;;1.88;0.70;;;;;;;21.65;35.60;102320.97;16134241;19;129297;-56
2022/06/13 16:33:24;;;;;;;2.42;0.50;;;;;;;21.68;36.02;102323.25;16131365;19;129000;-55
2022/06/13 16:38:48;;;;;;;4.88;0.70;;;;;;;21.70;35.76;102331.41;16132857;19;130294;-56
2022/06/13 16:44:14;;;;;;;2.88;0.80;;;;;;;21.72;35.69;102327.28;16128356;19;129734;-56
2022/06/13 16:49:41;;;;;;;3.50;0.90;;;;;;;21.73;35.35;102331.78;16125696;19;129363;-59
2022/06/13 16:55:06;;;;;;;3.55;0.65;;;;;;;21.77;35.53;102327.44;16141762;19;129319;-58
2022/06/13 17:00:38;;;;;;;2.77;0.77;;;;;;;21.82;35.09;102333.16;16143492;19;128899;-57
2022/06/13 17:06:00;;;;;;;3.08;0.70;;;;;;;21.87;35.63;102324.09;16144849;19;129405;-58
2022/06/13 17:11:22;;;;;;;5.63;0.98;;;;;;;21.88;35.33;102324.94;16143804;19;129694;-56
2022/06/13 17:16:44;;;;;;;4.70;0.80;;;;;;;21.90;35.46;102328.34;16145324;19;128890;-57
2022/06/13 17:22:05;;;;;;;3.17;1.00;;;;;;;21.93;35.46;102317.59;16145347;19;129486;-57
2022/06/13 17:33:11;;;;;;;4.85;0.90;;;;;;;21.96;35.31;102325.50;16138234;19;129894;-56
2022/06/13 17:38:33;;;;;;;6.50;0.70;;;;;;;21.94;35.24;102319.28;16139945;19;129671;-56
2022/06/13 17:43:56;;;;;;;3.50;0.77;;;;;;;21.89;34.64;102307.16;16140884;19;130646;-56
2022/06/13 17:49:18;;;;;;;5.60;1.10;;;;;;;21.83;34.26;102318.13;16141039;19;131079;-56
2022/06/13 17:54:40;;;;;;;2.83;0.68;;;;;;;21.79;33.72;102333.63;16138757;19;129560;-54
2022/06/13 18:00:08;;;;;;;6.03;1.50;;;;;;;21.73;33.23;102320.63;16140119;19;129729;-54
2022/06/13 18:05:33;;;;;;;6.60;0.95;;;;;;;21.70;33.42;102323.88;16141732;19;130837;-55
2022/06/13 18:10:56;;;;;;;4.10;0.80;;;;;;;21.65;33.03;102332.09;16140167;19;129794;-56
2022/06/13 18:16:23;;;;;;;4.88;0.90;;;;;;;21.62;33.28;102338.97;16139784;19;129486;-56
2022/06/13 18:21:45;;;;;;;5.63;0.90;;;;;;;21.57;33.16;102340.75;16140606;19;129411;-54
2022/06/13 18:27:12;;;;;;;4.88;1.20;;;;;;;21.55;32.82;102342.91;16143427;19;129501;-55
2022/06/13 18:32:34;;;;;;;3.40;0.70;;;;;;;21.50;32.90;102341.69;16140796;19;129270;-55
2022/06/13 18:37:57;;;;;;;6.05;1.30;;;;;;;21.46;32.64;102345.97;16142315;19;129452;-56
2022/06/13 18:43:20;;;;;;;3.78;1.13;;;;;;;21.43;32.84;102343.66;16139784;19;129566;-56
2022/06/13 18:48:42;;;;;;;5.75;1.23;;;;;;;21.40;32.19;102335.78;16138597;19;129820;-56
2022/06/13 18:54:04;;;;;;;15.93;1.38;;;;;;;21.37;31.95;102339.84;16137298;19;129625;-57
2022/06/13 18:59:27;;;;;;;25.55;2.80;;;;;;;21.34;31.79;102333.91;16141854;19;130689;-56
2022/06/13 19:04:53;;;;;;;13.63;1.58;;;;;;;21.33;32.30;102343.34;16143617;19;128887;-57
2022/06/13 19:10:19;;;;;;;12.55;1.80;;;;;;;21.31;31.22;102342.72;16141141;19;129609;-57
2022/06/13 19:15:43;;;;;;;13.30;1.50;;;;;;;21.27;31.37;102347.91;16135382;19;129199;-55
2022/06/13 19:21:06;;;;;;;8.57;1.53;;;;;;;21.22;31.37;102340.22;16143249;19;129272;-56
2022/06/13 19:26:28;;;;;;;8.07;1.50;;;;;;;21.18;31.46;102354.84;16139297;19;131089;-54
2022/06/13 19:31:52;;;;;;;5.50;1.02;;;;;;;21.14;31.22;102354.47;16139603;19;129557;-53
2022/06/13 19:37:14;;;;;;;3.70;0.82;;;;;;;21.11;31.23;102354.91;16144463;19;131618;-55
2022/06/13 19:42:40;;;;;;;5.93;1.00;;;;;;;21.05;31.26;102359.47;16146217;19;130815;-55
2022/06/13 19:48:02;;;;;;;9.07;1.47;;;;;;;21.01;31.35;102360.13;16147970;19;130060;-54
2022/06/13 19:53:24;;;;;;;6.57;1.25;;;;;;;20.99;31.49;102367.84;16142478;19;129275;-57
2022/06/13 19:58:46;;;;;;;8.05;1.23;;;;;;;20.99;31.58;102367.84;16146037;19;129567;-53
2022/06/13 20:04:09;;;;;;;6.03;1.20;;;;;;;20.94;31.59;102376.03;16138400;19;130097;-57
2022/06/13 20:09:30;;;;;;;9.93;1.50;;;;;;;20.93;31.98;102368.75;16150651;19;129886;-59
2022/06/13 20:15:15;;;;;;;8.02;1.15;;;;;;;20.95;31.58;102389.72;16135470;19;130018;-58
2022/06/13 20:20:38;;;;;;;6.50;1.20;;;;;;;21.00;31.62;102386.25;16138049;19;129414;-57
2022/06/13 20:26:00;;;;;;;3.05;0.95;;;;;;;21.07;31.86;102389.81;16140382;19;130848;-58
2022/06/13 20:31:23;;;;;;;5.53;0.80;;;;;;;21.13;32.14;102391.72;16155846;19;130219;-56
2022/06/13 20:36:45;;;;;;;11.82;1.42;;;;;;;21.17;32.37;102392.09;16157412;19;129400;-57
2022/06/13 20:42:09;;;;;;;10.43;0.80;;;;;;;21.20;32.68;102395.28;16152894;19;129490;-58
2022/06/13 20:47:34;;;;;;;14.13;1.40;;;;;;;21.28;32.51;102396.06;16152424;19;129260;-58
2022/06/13 20:53:05;;;;;;;13.73;0.80;;;;;;;21.30;32.99;102389.19;16159890;19;129169;-58
2022/06/13 20:58:27;;;;;;;12.50;1.15;;;;;;;21.32;33.19;102394.53;16158214;19;129857;-58
2022/06/13 21:03:57;;;;;;;2.58;0.82;;;;;;;21.33;33.47;102396.22;16188427;19;129364;-58
2022/06/13 21:15:03;;;;;;;21.25;1.65;;;;;;;21.36;34.05;102393.00;16223843;19;128572;-57
2022/06/13 21:20:26;;;;;;;6.10;0.82;;;;;;;21.36;34.34;102393.00;16222121;19;129070;-57
2022/06/13 21:25:52;;;;;;;6.50;0.80;;;;;;;21.39;34.92;102394.47;16217211;19;129067;-56
2022/06/13 21:31:17;;;;;;;4.30;0.90;;;;;;;21.40;35.18;102394.25;16222258;19;129254;-59
2022/06/13 21:36:40;;;;;;;10.20;0.85;;;;;;;21.39;35.65;102378.63;16222553;19;129122;-56
2022/06/13 21:42:03;;;;;;;4.75;0.60;;;;;;;21.40;35.60;102379.47;16221749;19;129932;-56
2022/06/13 21:47:26;;;;;;;11.45;1.20;;;;;;;21.39;35.41;102369.41;16224542;19;129789;-57
2022/06/13 21:52:48;;;;;;;13.77;1.23;;;;;;;21.35;35.49;102377.38;16222585;19;129073;-58
2022/06/13 21:58:10;;;;;;;6.97;1.05;;;;;;;21.32;35.61;102377.81;16166458;19;129550;-57
2022/06/13 22:03:38;;;;;;;7.32;0.95;;;;;;;21.30;35.13;102369.72;16146638;19;128957;-57
2022/06/13 22:09:01;;;;;;;8.77;0.73;;;;;;;21.28;35.87;102376.59;16142099;19;129272;-54
2022/06/13 22:14:23;;;;;;;8.63;0.90;;;;;;;21.27;35.71;102369.31;16139644;19;129821;-58
2022/06/13 22:19:45;;;;;;;6.00;0.98;;;;;;;21.22;35.69;102379.19;16144302;19;130225;-54
2022/06/13 22:25:08;;;;;;;4.43;0.98;;;;;;;21.21;35.84;102379.44;16149802;19;129295;-55
2022/06/13 22:30:32;;;;;;;7.20;1.08;;;;;;;21.20;35.90;102380.53;16180780;19;129537;-56
2022/06/13 22:35:54;;;;;;;5.47;0.82;;;;;;;21.19;36.12;102384.38;16214589;19;128804;-56
2022/06/13 22:41:16;;;;;;;3.47;0.52;;;;;;;21.15;36.03;102372.84;16214260;19;128977;-58
2022/06/13 22:52:24;;;;;;;2.80;0.77;;;;;;;21.13;36.16;102391.72;16219624;19;129122;-61
2022/06/13 22:57:47;;;;;;;1.45;0.40;;;;;;;21.12;36.50;102375.22;16219613;19;130723;-58
2022/06/13 23:03:09;;;;;;;5.50;0.65;;;;;;;21.10;36.61;102381.03;16208002;19;130517;-56
2022/06/13 23:08:31;;;;;;;1.83;0.73;;;;;;;21.09;36.27;102362.63;16206124;19;128605;-58
2022/06/13 23:13:52;;;;;;;1.65;0.57;;;;;;;21.08;36.14;102377.63;16197955;19;129505;-58
2022/06/13 23:19:14;;;;;;;2.13;0.60;;;;;;;21.06;36.45;102369.50;16202516;19;129289;-57
2022/06/13 23:24:36;;;;;;;5.68;0.45;;;;;;;21.07;36.54;102375.91;16200387;19;130085;-58
2022/06/13 23:29:58;;;;;;;2.72;0.68;;;;;;;21.06;36.55;102377.84;16201035;19;128525;-58
2022/06/13 23:35:22;;;;;;;2.28;0.50;;;;;;;21.05;36.83;102380.84;16177479;19;129137;-58
2022/06/13 23:40:45;;;;;;;4.13;0.50;;;;;;;21.03;37.26;102381.09;16202620;19;129222;-55
2022/06/13 23:46:06;;;;;;;4.00;0.50;;;;;;;21.06;37.29;102385.34;16200909;19;129357;-59
2022/06/13 23:51:28;;;;;;;1.58;0.30;;;;;;;21.08;37.76;102383.19;16203953;19;128766;-59
2022/06/13 23:56:51;;;;;;;1.08;0.40;;;;;;;21.11;37.59;102385.50;16131697;19;129218;-58
